Decoded Metar for PAPH (PORT HEIDEN in AK, USA) (IATA:PTH) | Meteo·Mobile Aviation Weather
aviador You're here:

PAPH Decoded Metar

PORT HEIDEN in AK, USA
Report Time2019-01-17 21:56:00
UTC Time2019-01-17 22:57:31
Flight Rules lifr LIFR
Wind230° at 05 kt
W.Decomp.*RWY 23: 4.8 kt HW 1.4 kt LCW
RWY 13: 0.5 kt HW 5.0 kt RCW
W.Rank230° ranks 15
Current wind is below 230° avg. (11.0)
Visibility402 m
Phenomena:Fog
Clouds:Overcast 003 Hf
Expected CloudBase > 400 ft AGL from Temp-Dew spread
Ceiling300 ft
Temp00°C (ISA -15)
Dew Point-1°C (93% RH)
AAT-3.9°C
QNH1004 hPa
Density Alt-1,329 ft
Elevation95 ft
Report Wrong Elevation
Raw Report
PAPH 172156Z AUTO 23005KT 1/4SM UP FG OVC003 00/M01 A2964 RMK AO2
UPB23 SLP042 P0000 T00001006 FZRANO=

Extra information for PAPH:More info

Metar Taf Metar & Taf Last 4 Metars F.Rules Stats Wind Profile Meteogram Temp Stats Airport Information Weather charts Add Link Nearby VenuesMetar ALERT Operation Metar Decoded Social comments

AIRNAV info for PAPH